createdAt,value
2023-03-01T00:04:39.047Z,19.90
2023-03-01T00:10:03.527Z,18.40
2023-03-01T00:15:27.677Z,20.70
2023-03-01T00:20:56.423Z,22.60
2023-03-01T00:26:26.791Z,19.90
2023-03-01T00:31:50.734Z,20.10
2023-03-01T00:37:14.705Z,17.70
2023-03-01T00:42:39.554Z,18.80
2023-03-01T00:48:04.184Z,19.40
2023-03-01T00:53:29.078Z,18.30
2023-03-01T00:58:53.253Z,20.80
2023-03-01T01:04:17.476Z,20.30
2023-03-01T01:09:42.231Z,21.60
2023-03-01T01:15:07.198Z,22.60
2023-03-01T01:20:31.300Z,20.90
2023-03-01T01:25:56.917Z,18.80
2023-03-01T01:31:24.982Z,20.00
2023-03-01T01:36:51.148Z,20.00
2023-03-01T01:42:19.852Z,22.30
2023-03-01T01:47:50.190Z,20.20
2023-03-01T01:53:20.536Z,21.80
2023-03-01T01:58:48.903Z,19.70
2023-03-01T02:04:13.264Z,19.00
2023-03-01T02:09:37.721Z,21.20
2023-03-01T02:15:01.977Z,21.40
2023-03-01T02:20:39.483Z,20.60
2023-03-01T02:26:10.337Z,20.40
2023-03-01T02:31:44.677Z,19.80
2023-03-01T02:37:16.136Z,22.20
2023-03-01T02:42:52.440Z,21.20
2023-03-01T02:48:16.938Z,18.90
2023-03-01T02:54:08.643Z,22.20
2023-03-01T02:59:40.584Z,17.60
2023-03-01T03:05:22.105Z,18.00
2023-03-01T03:10:48.690Z,19.70
2023-03-01T03:16:13.263Z,24.00
2023-03-01T03:21:37.561Z,20.40
2023-03-01T03:27:01.664Z,21.50
2023-03-01T03:32:25.996Z,22.00
2023-03-01T03:38:04.172Z,21.80
2023-03-01T03:43:28.947Z,20.60
2023-03-01T03:48:53.572Z,20.90
2023-03-01T03:54:18.437Z,20.70
2023-03-01T03:59:42.816Z,19.90
2023-03-01T04:05:08.285Z,23.50
2023-03-01T04:10:39.202Z,21.20
2023-03-01T04:16:04.242Z,20.60
2023-03-01T04:21:28.693Z,22.50
2023-03-01T04:26:52.870Z,28.10
2023-03-01T04:32:17.871Z,30.20
2023-03-01T04:37:42.977Z,29.10
2023-03-01T04:43:07.820Z,26.70
2023-03-01T04:48:33.249Z,26.90
2023-03-01T04:53:57.225Z,28.80
2023-03-01T04:59:23.786Z,28.50
2023-03-01T05:04:48.491Z,26.40
2023-03-01T05:10:13.191Z,24.70
2023-03-01T05:15:38.513Z,21.80
2023-03-01T05:21:11.708Z,25.00
2023-03-01T05:26:35.812Z,22.40
2023-03-01T05:32:02.623Z,23.00
2023-03-01T05:37:27.940Z,21.30
2023-03-01T05:42:58.080Z,21.20
2023-03-01T05:48:22.478Z,21.40
2023-03-01T05:53:46.952Z,24.80
2023-03-01T05:59:12.136Z,23.30
2023-03-01T06:04:36.289Z,23.80
2023-03-01T06:10:00.668Z,25.10
2023-03-01T06:15:25.382Z,21.60
2023-03-01T06:20:57.613Z,22.60
2023-03-01T06:26:22.460Z,26.80
2023-03-01T06:31:47.334Z,26.90
2023-03-01T06:37:12.199Z,26.10
2023-03-01T06:42:40.604Z,26.60
2023-03-01T06:48:08.674Z,23.20
2023-03-01T06:53:33.428Z,23.70
2023-03-01T06:58:57.986Z,23.10
2023-03-01T07:04:21.824Z,25.20
2023-03-01T07:09:47.518Z,24.40
2023-03-01T07:15:12.228Z,29.20
2023-03-01T07:20:37.365Z,27.70
2023-03-01T07:26:02.288Z,26.10
2023-03-01T07:31:29.051Z,24.60
2023-03-01T07:36:53.712Z,22.90
2023-03-01T07:42:18.516Z,25.80
2023-03-01T07:47:42.497Z,22.10
2023-03-01T07:53:06.698Z,24.20
2023-03-01T07:58:31.845Z,22.60
2023-03-01T08:03:56.738Z,22.80
2023-03-01T08:09:21.253Z,25.00
2023-03-01T08:14:45.753Z,25.10
2023-03-01T08:20:13.769Z,24.00
2023-03-01T08:25:37.737Z,25.50
2023-03-01T08:31:02.766Z,24.90
2023-03-01T08:36:29.779Z,23.50
2023-03-01T08:41:56.637Z,25.50
2023-03-01T08:47:20.953Z,22.40
2023-03-01T08:52:45.108Z,22.60
2023-03-01T08:58:09.318Z,18.10
2023-03-01T09:03:36.285Z,19.10
2023-03-01T09:09:03.042Z,17.40
2023-03-01T09:14:27.212Z,17.00
2023-03-01T09:19:51.373Z,18.10
2023-03-01T09:25:15.860Z,18.80
2023-03-01T09:30:39.931Z,18.00
2023-03-01T09:36:07.371Z,17.80
2023-03-01T09:41:38.839Z,18.50
2023-03-01T09:47:04.521Z,21.40
2023-03-01T09:52:44.095Z,19.80
2023-03-01T09:58:43.302Z,21.20
2023-03-01T10:04:48.925Z,18.90
2023-03-01T10:10:40.388Z,20.00
2023-03-01T10:16:18.984Z,20.40
2023-03-01T10:21:47.128Z,19.60
2023-03-01T10:27:35.328Z,18.70
2023-03-01T10:33:00.218Z,16.20
2023-03-01T10:38:25.867Z,15.70
2023-03-01T10:43:53.012Z,13.20
2023-03-01T10:49:24.503Z,12.60
2023-03-01T10:55:00.964Z,13.00
2023-03-01T11:00:26.926Z,12.70
2023-03-01T11:06:14.416Z,13.50
2023-03-01T11:11:39.256Z,13.30
2023-03-01T11:17:14.196Z,10.80
2023-03-01T11:22:46.940Z,10.80
2023-03-01T11:28:22.908Z,11.70
2023-03-01T11:33:55.151Z,11.50
2023-03-01T11:40:05.137Z,10.90
2023-03-01T11:45:38.079Z,10.00
2023-03-01T11:51:10.616Z,10.70
2023-03-01T11:56:55.790Z,10.50
2023-03-01T12:02:32.213Z,10.10
2023-03-01T12:08:18.163Z,10.50
2023-03-01T12:13:52.260Z,9.90
2023-03-01T12:19:21.124Z,10.60
2023-03-01T12:24:52.176Z,10.90
2023-03-01T12:30:44.876Z,11.00
2023-03-01T12:36:44.919Z,12.50
2023-03-01T12:42:30.384Z,12.80
2023-03-01T12:48:12.603Z,12.50
2023-03-01T12:53:42.599Z,13.50
2023-03-01T12:59:15.655Z,14.20
2023-03-01T13:05:08.063Z,12.50
2023-03-01T13:10:50.576Z,12.70
2023-03-01T13:16:31.457Z,11.90
2023-03-01T13:21:56.242Z,8.60
2023-03-01T13:27:26.421Z,9.60
2023-03-01T13:32:51.231Z,9.00
2023-03-01T13:38:47.942Z,9.10
2023-03-01T13:44:33.744Z,9.10
2023-03-01T13:50:05.785Z,7.60
2023-03-01T13:55:42.144Z,7.30
2023-03-01T14:01:08.679Z,6.00
2023-03-01T14:06:37.022Z,8.20
2023-03-01T14:12:02.100Z,10.80
2023-03-01T14:17:43.178Z,9.60
2023-03-01T14:23:21.497Z,8.30
2023-03-01T14:28:45.922Z,7.60
2023-03-01T14:34:26.538Z,7.20
2023-03-01T14:39:58.023Z,6.50
2023-03-01T14:45:28.021Z,6.60
2023-03-01T14:50:55.822Z,8.20
2023-03-01T14:56:21.877Z,9.20
2023-03-01T15:01:47.465Z,9.90
2023-03-01T15:07:15.113Z,10.10
2023-03-01T15:12:42.528Z,10.70
2023-03-01T15:18:17.111Z,10.30
2023-03-01T15:23:42.042Z,11.30
2023-03-01T15:29:06.385Z,11.00
2023-03-01T15:34:41.372Z,10.10
2023-03-01T15:40:20.763Z,10.90
2023-03-01T15:45:57.304Z,12.40
2023-03-01T15:51:34.861Z,12.80
2023-03-01T15:56:59.583Z,13.40
2023-03-01T16:02:25.722Z,12.50
2023-03-01T16:07:50.157Z,12.60
2023-03-01T16:13:15.026Z,12.50
2023-03-01T16:18:40.391Z,12.00
2023-03-01T16:24:05.683Z,12.20
2023-03-01T16:29:31.296Z,13.40
2023-03-01T16:34:55.924Z,13.00
2023-03-01T16:40:27.816Z,12.70
2023-03-01T16:45:53.084Z,13.80
2023-03-01T16:51:17.916Z,12.60
2023-03-01T16:56:43.377Z,13.10
2023-03-01T17:02:09.452Z,14.00
2023-03-01T17:07:35.890Z,13.60
2023-03-01T17:13:00.141Z,14.40
2023-03-01T17:18:25.467Z,15.90
2023-03-01T17:23:50.780Z,14.80
2023-03-01T17:29:19.434Z,14.70
2023-03-01T17:34:43.538Z,17.30
2023-03-01T17:40:09.166Z,17.40
2023-03-01T17:45:33.649Z,17.00
2023-03-01T17:50:58.847Z,18.20
2023-03-01T17:56:24.846Z,18.90
2023-03-01T18:02:13.558Z,20.30
2023-03-01T18:08:00.568Z,18.60
2023-03-01T18:13:25.455Z,19.20
2023-03-01T18:18:55.197Z,21.70
2023-03-01T18:24:19.546Z,19.50
2023-03-01T18:29:44.841Z,24.70
2023-03-01T18:35:10.276Z,22.80
2023-03-01T18:40:35.038Z,25.10
2023-03-01T18:46:00.341Z,25.00
2023-03-01T18:51:27.146Z,25.70
2023-03-01T18:56:51.702Z,24.80
2023-03-01T19:02:16.927Z,23.30
2023-03-01T19:07:41.746Z,24.00
2023-03-01T19:13:05.647Z,25.50
2023-03-01T19:18:30.011Z,26.20
2023-03-01T19:23:55.627Z,26.90
2023-03-01T19:29:20.052Z,24.00
2023-03-01T19:34:45.042Z,25.80
2023-03-01T19:40:10.464Z,24.90
2023-03-01T19:45:34.858Z,23.50
2023-03-01T19:50:59.212Z,21.50
2023-03-01T19:56:23.278Z,19.90
2023-03-01T20:01:47.280Z,21.40
2023-03-01T20:07:13.074Z,20.80
2023-03-01T20:12:38.828Z,22.00
2023-03-01T20:18:03.560Z,23.40
2023-03-01T20:23:28.750Z,22.80
2023-03-01T20:28:55.457Z,24.90
2023-03-01T20:34:20.100Z,25.80
2023-03-01T20:39:45.258Z,30.10
2023-03-01T20:45:10.821Z,30.40
2023-03-01T20:50:34.930Z,33.10
2023-03-01T20:56:07.350Z,29.50
2023-03-01T21:01:34.563Z,26.20
2023-03-01T21:06:58.746Z,25.60
2023-03-01T21:12:23.532Z,22.40
2023-03-01T21:17:48.448Z,24.30
2023-03-01T21:23:12.988Z,23.40
2023-03-01T21:28:38.086Z,25.60
2023-03-01T21:34:05.516Z,30.50
2023-03-01T21:39:30.306Z,33.50
2023-03-01T21:44:54.981Z,31.00
2023-03-01T21:50:20.306Z,32.40
2023-03-01T21:55:48.482Z,30.90
2023-03-01T22:01:15.842Z,31.80
2023-03-01T22:06:42.714Z,31.40
2023-03-01T22:12:07.133Z,30.20
2023-03-01T22:17:31.858Z,32.60
2023-03-01T22:22:56.153Z,34.20
2023-03-01T22:28:20.592Z,30.10
2023-03-01T22:33:44.875Z,31.00
2023-03-01T22:39:08.698Z,35.20
2023-03-01T22:44:33.342Z,36.90
2023-03-01T22:49:57.865Z,39.90
2023-03-01T22:55:22.414Z,37.60
2023-03-01T23:00:46.780Z,37.80
2023-03-01T23:06:11.741Z,38.80
2023-03-01T23:11:35.554Z,42.70
2023-03-01T23:17:03.640Z,43.50
2023-03-01T23:22:31.459Z,38.60
2023-03-01T23:27:56.007Z,39.90
2023-03-01T23:33:20.200Z,44.70
2023-03-01T23:38:44.857Z,40.20
2023-03-01T23:44:09.104Z,40.90
2023-03-01T23:49:33.292Z,43.00
2023-03-01T23:54:58.254Z,46.90
